sensor_id;sensor_type;location;lat;lon;timestamp;P1;durP1;ratioP1;P2;durP2;ratioP2
11151;SDS011;5630;49.342;10.802;2023-10-19T00:01:10;21.73;;;19.43;;
11151;SDS011;5630;49.342;10.802;2023-10-19T00:03:36;24.03;;;21.40;;
11151;SDS011;5630;49.342;10.802;2023-10-19T00:06:02;23.37;;;20.43;;
11151;SDS011;5630;49.342;10.802;2023-10-19T00:08:30;24.03;;;21.53;;
11151;SDS011;5630;49.342;10.802;2023-10-19T00:11:06;24.03;;;20.27;;
11151;SDS011;5630;49.342;10.802;2023-10-19T00:13:32;25.27;;;20.33;;
11151;SDS011;5630;49.342;10.802;2023-10-19T00:16:00;25.23;;;22.33;;
11151;SDS011;5630;49.342;10.802;2023-10-19T00:18:32;25.30;;;22.57;;
11151;SDS011;5630;49.342;10.802;2023-10-19T00:20:59;24.57;;;21.97;;
11151;SDS011;5630;49.342;10.802;2023-10-19T00:23:36;23.90;;;21.03;;
11151;SDS011;5630;49.342;10.802;2023-10-19T00:26:04;26.50;;;23.60;;
11151;SDS011;5630;49.342;10.802;2023-10-19T00:28:33;26.10;;;23.33;;
11151;SDS011;5630;49.342;10.802;2023-10-19T00:31:01;25.57;;;22.87;;
11151;SDS011;5630;49.342;10.802;2023-10-19T00:33:33;26.97;;;24.17;;
11151;SDS011;5630;49.342;10.802;2023-10-19T00:36:03;24.73;;;22.10;;
11151;SDS011;5630;49.342;10.802;2023-10-19T00:38:33;28.13;;;23.70;;
11151;SDS011;5630;49.342;10.802;2023-10-19T00:41:02;28.00;;;24.00;;
11151;SDS011;5630;49.342;10.802;2023-10-19T00:43:31;25.43;;;22.60;;
11151;SDS011;5630;49.342;10.802;2023-10-19T00:46:08;32.77;;;24.33;;
11151;SDS011;5630;49.342;10.802;2023-10-19T00:48:54;27.87;;;24.50;;
11151;SDS011;5630;49.342;10.802;2023-10-19T00:51:29;27.27;;;24.37;;
11151;SDS011;5630;49.342;10.802;2023-10-19T00:57:07;28.63;;;24.97;;
11151;SDS011;5630;49.342;10.802;2023-10-19T00:59:36;26.33;;;23.43;;
11151;SDS011;5630;49.342;10.802;2023-10-19T01:02:17;29.60;;;24.33;;
11151;SDS011;5630;49.342;10.802;2023-10-19T01:04:47;28.77;;;25.17;;
11151;SDS011;5630;49.342;10.802;2023-10-19T01:07:30;28.60;;;25.60;;
11151;SDS011;5630;49.342;10.802;2023-10-19T01:09:58;28.27;;;25.23;;
11151;SDS011;5630;49.342;10.802;2023-10-19T01:12:26;28.67;;;25.63;;
11151;SDS011;5630;49.342;10.802;2023-10-19T01:17:31;28.43;;;24.83;;
11151;SDS011;5630;49.342;10.802;2023-10-19T01:20:03;30.37;;;27.07;;
11151;SDS011;5630;49.342;10.802;2023-10-19T01:22:42;28.70;;;25.60;;
11151;SDS011;5630;49.342;10.802;2023-10-19T01:25:11;29.80;;;25.73;;
11151;SDS011;5630;49.342;10.802;2023-10-19T01:27:44;30.23;;;26.07;;
11151;SDS011;5630;49.342;10.802;2023-10-19T01:30:10;31.17;;;26.17;;
11151;SDS011;5630;49.342;10.802;2023-10-19T01:32:38;31.60;;;26.57;;
11151;SDS011;5630;49.342;10.802;2023-10-19T01:35:03;30.73;;;27.43;;
11151;SDS011;5630;49.342;10.802;2023-10-19T01:37:29;28.80;;;25.33;;
11151;SDS011;5630;49.342;10.802;2023-10-19T01:39:55;29.60;;;26.00;;
11151;SDS011;5630;49.342;10.802;2023-10-19T01:42:20;30.77;;;27.23;;
11151;SDS011;5630;49.342;10.802;2023-10-19T01:44:46;31.07;;;27.13;;
11151;SDS011;5630;49.342;10.802;2023-10-19T01:47:12;31.53;;;27.27;;
11151;SDS011;5630;49.342;10.802;2023-10-19T01:49:41;30.10;;;26.47;;
11151;SDS011;5630;49.342;10.802;2023-10-19T01:52:10;29.43;;;26.23;;
11151;SDS011;5630;49.342;10.802;2023-10-19T01:54:35;29.50;;;26.40;;
11151;SDS011;5630;49.342;10.802;2023-10-19T01:57:02;32.40;;;26.53;;
11151;SDS011;5630;49.342;10.802;2023-10-19T01:59:28;32.57;;;26.43;;
11151;SDS011;5630;49.342;10.802;2023-10-19T02:01:56;28.90;;;25.80;;
11151;SDS011;5630;49.342;10.802;2023-10-19T02:04:22;28.70;;;25.23;;
11151;SDS011;5630;49.342;10.802;2023-10-19T02:06:49;28.93;;;25.37;;
11151;SDS011;5630;49.342;10.802;2023-10-19T02:09:17;29.07;;;25.10;;
11151;SDS011;5630;49.342;10.802;2023-10-19T02:11:52;30.17;;;26.73;;
11151;SDS011;5630;49.342;10.802;2023-10-19T02:14:22;29.60;;;26.23;;
11151;SDS011;5630;49.342;10.802;2023-10-19T02:16:53;29.37;;;26.37;;
11151;SDS011;5630;49.342;10.802;2023-10-19T02:19:24;29.80;;;26.03;;
11151;SDS011;5630;49.342;10.802;2023-10-19T02:21:59;28.93;;;25.93;;
11151;SDS011;5630;49.342;10.802;2023-10-19T02:24:28;29.47;;;26.37;;
11151;SDS011;5630;49.342;10.802;2023-10-19T02:26:55;28.07;;;25.07;;
11151;SDS011;5630;49.342;10.802;2023-10-19T02:29:21;28.30;;;24.17;;
11151;SDS011;5630;49.342;10.802;2023-10-19T02:31:47;28.83;;;25.57;;
11151;SDS011;5630;49.342;10.802;2023-10-19T02:34:13;28.60;;;25.50;;
11151;SDS011;5630;49.342;10.802;2023-10-19T02:36:42;28.57;;;25.57;;
11151;SDS011;5630;49.342;10.802;2023-10-19T02:39:10;29.70;;;26.50;;
11151;SDS011;5630;49.342;10.802;2023-10-19T02:41:38;29.63;;;26.60;;
11151;SDS011;5630;49.342;10.802;2023-10-19T02:44:13;29.33;;;26.23;;
11151;SDS011;5630;49.342;10.802;2023-10-19T02:46:46;29.47;;;26.30;;
11151;SDS011;5630;49.342;10.802;2023-10-19T02:49:17;29.70;;;26.40;;
11151;SDS011;5630;49.342;10.802;2023-10-19T02:51:45;29.67;;;25.93;;
11151;SDS011;5630;49.342;10.802;2023-10-19T02:54:12;30.17;;;26.97;;
11151;SDS011;5630;49.342;10.802;2023-10-19T02:56:44;31.07;;;26.20;;
11151;SDS011;5630;49.342;10.802;2023-10-19T02:59:14;29.57;;;26.40;;
11151;SDS011;5630;49.342;10.802;2023-10-19T03:01:41;31.00;;;26.80;;
11151;SDS011;5630;49.342;10.802;2023-10-19T03:04:11;30.17;;;26.30;;
11151;SDS011;5630;49.342;10.802;2023-10-19T03:06:40;32.10;;;27.97;;
11151;SDS011;5630;49.342;10.802;2023-10-19T03:09:06;31.03;;;27.83;;
11151;SDS011;5630;49.342;10.802;2023-10-19T03:11:41;30.77;;;27.20;;
11151;SDS011;5630;49.342;10.802;2023-10-19T03:14:09;31.23;;;27.83;;
11151;SDS011;5630;49.342;10.802;2023-10-19T03:16:36;31.87;;;28.17;;
11151;SDS011;5630;49.342;10.802;2023-10-19T03:19:02;30.93;;;27.57;;
11151;SDS011;5630;49.342;10.802;2023-10-19T03:21:29;33.70;;;28.60;;
11151;SDS011;5630;49.342;10.802;2023-10-19T03:23:58;32.40;;;28.87;;
11151;SDS011;5630;49.342;10.802;2023-10-19T03:26:27;31.77;;;28.37;;
11151;SDS011;5630;49.342;10.802;2023-10-19T03:28:55;31.10;;;27.97;;
11151;SDS011;5630;49.342;10.802;2023-10-19T03:31:22;32.50;;;28.80;;
11151;SDS011;5630;49.342;10.802;2023-10-19T03:33:51;31.37;;;28.00;;
11151;SDS011;5630;49.342;10.802;2023-10-19T03:36:23;31.07;;;27.77;;
11151;SDS011;5630;49.342;10.802;2023-10-19T03:38:50;31.07;;;27.77;;
11151;SDS011;5630;49.342;10.802;2023-10-19T03:41:17;31.77;;;28.47;;
11151;SDS011;5630;49.342;10.802;2023-10-19T03:43:47;31.60;;;28.23;;
11151;SDS011;5630;49.342;10.802;2023-10-19T03:46:13;31.73;;;27.70;;
11151;SDS011;5630;49.342;10.802;2023-10-19T03:48:48;34.03;;;28.93;;
11151;SDS011;5630;49.342;10.802;2023-10-19T03:51:13;32.57;;;29.10;;
11151;SDS011;5630;49.342;10.802;2023-10-19T03:53:39;34.33;;;28.90;;
11151;SDS011;5630;49.342;10.802;2023-10-19T03:56:11;34.67;;;30.30;;
11151;SDS011;5630;49.342;10.802;2023-10-19T03:58:37;33.90;;;30.23;;
11151;SDS011;5630;49.342;10.802;2023-10-19T04:01:08;33.77;;;29.10;;
11151;SDS011;5630;49.342;10.802;2023-10-19T04:03:34;33.53;;;29.97;;
11151;SDS011;5630;49.342;10.802;2023-10-19T04:06:01;33.40;;;30.00;;
11151;SDS011;5630;49.342;10.802;2023-10-19T04:08:29;33.63;;;30.00;;
11151;SDS011;5630;49.342;10.802;2023-10-19T04:10:59;36.00;;;32.20;;
11151;SDS011;5630;49.342;10.802;2023-10-19T04:13:36;36.70;;;30.93;;
11151;SDS011;5630;49.342;10.802;2023-10-19T04:16:03;35.17;;;31.47;;
11151;SDS011;5630;49.342;10.802;2023-10-19T04:18:30;34.33;;;30.20;;
11151;SDS011;5630;49.342;10.802;2023-10-19T04:20:56;38.27;;;31.47;;
11151;SDS011;5630;49.342;10.802;2023-10-19T04:23:23;34.90;;;31.00;;
11151;SDS011;5630;49.342;10.802;2023-10-19T04:25:52;41.90;;;32.97;;
11151;SDS011;5630;49.342;10.802;2023-10-19T04:28:21;37.63;;;30.97;;
11151;SDS011;5630;49.342;10.802;2023-10-19T04:30:56;34.70;;;31.00;;
11151;SDS011;5630;49.342;10.802;2023-10-19T04:33:27;36.60;;;30.80;;
11151;SDS011;5630;49.342;10.802;2023-10-19T04:35:57;36.80;;;31.30;;
11151;SDS011;5630;49.342;10.802;2023-10-19T04:38:25;34.00;;;30.27;;
11151;SDS011;5630;49.342;10.802;2023-10-19T04:40:51;36.30;;;32.57;;
11151;SDS011;5630;49.342;10.802;2023-10-19T04:43:16;36.23;;;32.27;;
11151;SDS011;5630;49.342;10.802;2023-10-19T04:45:42;36.40;;;32.47;;
11151;SDS011;5630;49.342;10.802;2023-10-19T04:48:09;37.53;;;31.37;;
11151;SDS011;5630;49.342;10.802;2023-10-19T04:50:35;34.67;;;30.90;;
11151;SDS011;5630;49.342;10.802;2023-10-19T04:53:01;36.00;;;30.57;;
11151;SDS011;5630;49.342;10.802;2023-10-19T04:55:27;37.80;;;32.83;;
11151;SDS011;5630;49.342;10.802;2023-10-19T04:57:55;35.50;;;30.90;;
11151;SDS011;5630;49.342;10.802;2023-10-19T05:00:21;36.13;;;31.27;;
11151;SDS011;5630;49.342;10.802;2023-10-19T05:02:49;36.50;;;30.73;;
11151;SDS011;5630;49.342;10.802;2023-10-19T05:05:16;37.20;;;31.43;;
11151;SDS011;5630;49.342;10.802;2023-10-19T05:07:42;38.83;;;32.33;;
11151;SDS011;5630;49.342;10.802;2023-10-19T05:10:08;33.97;;;29.93;;
11151;SDS011;5630;49.342;10.802;2023-10-19T05:12:34;36.50;;;31.33;;
11151;SDS011;5630;49.342;10.802;2023-10-19T05:14:59;36.23;;;30.97;;
11151;SDS011;5630;49.342;10.802;2023-10-19T05:17:25;36.00;;;31.80;;
11151;SDS011;5630;49.342;10.802;2023-10-19T05:19:52;34.00;;;30.37;;
11151;SDS011;5630;49.342;10.802;2023-10-19T05:22:18;37.93;;;31.57;;
11151;SDS011;5630;49.342;10.802;2023-10-19T05:24:43;36.03;;;32.10;;
11151;SDS011;5630;49.342;10.802;2023-10-19T05:27:09;34.90;;;30.53;;
11151;SDS011;5630;49.342;10.802;2023-10-19T05:29:35;36.50;;;31.97;;
11151;SDS011;5630;49.342;10.802;2023-10-19T05:32:01;35.33;;;31.20;;
11151;SDS011;5630;49.342;10.802;2023-10-19T05:34:28;35.13;;;31.33;;
11151;SDS011;5630;49.342;10.802;2023-10-19T05:37:00;35.33;;;30.80;;
11151;SDS011;5630;49.342;10.802;2023-10-19T05:39:27;36.67;;;31.07;;
11151;SDS011;5630;49.342;10.802;2023-10-19T05:41:56;35.70;;;31.03;;
11151;SDS011;5630;49.342;10.802;2023-10-19T05:44:25;34.27;;;30.43;;
11151;SDS011;5630;49.342;10.802;2023-10-19T05:46:52;34.33;;;30.57;;
11151;SDS011;5630;49.342;10.802;2023-10-19T05:49:17;33.00;;;29.50;;
11151;SDS011;5630;49.342;10.802;2023-10-19T05:51:43;34.23;;;29.97;;
11151;SDS011;5630;49.342;10.802;2023-10-19T05:54:12;34.13;;;30.43;;
11151;SDS011;5630;49.342;10.802;2023-10-19T05:56:37;37.70;;;31.43;;
11151;SDS011;5630;49.342;10.802;2023-10-19T05:59:03;35.07;;;31.17;;
11151;SDS011;5630;49.342;10.802;2023-10-19T06:01:29;34.67;;;30.00;;
11151;SDS011;5630;49.342;10.802;2023-10-19T06:03:55;33.93;;;28.93;;
11151;SDS011;5630;49.342;10.802;2023-10-19T06:06:21;37.33;;;29.37;;
11151;SDS011;5630;49.342;10.802;2023-10-19T06:08:47;31.43;;;28.03;;
11151;SDS011;5630;49.342;10.802;2023-10-19T06:11:13;32.53;;;28.60;;
11151;SDS011;5630;49.342;10.802;2023-10-19T06:13:38;36.10;;;29.57;;
11151;SDS011;5630;49.342;10.802;2023-10-19T06:16:04;33.93;;;28.27;;
11151;SDS011;5630;49.342;10.802;2023-10-19T06:18:30;34.23;;;30.00;;
11151;SDS011;5630;49.342;10.802;2023-10-19T06:20:56;36.90;;;31.50;;
11151;SDS011;5630;49.342;10.802;2023-10-19T06:23:22;34.07;;;29.40;;
11151;SDS011;5630;49.342;10.802;2023-10-19T06:25:47;36.60;;;30.73;;
11151;SDS011;5630;49.342;10.802;2023-10-19T06:28:13;34.27;;;30.50;;
11151;SDS011;5630;49.342;10.802;2023-10-19T06:30:40;34.27;;;30.53;;
11151;SDS011;5630;49.342;10.802;2023-10-19T06:33:06;34.70;;;30.90;;
11151;SDS011;5630;49.342;10.802;2023-10-19T06:35:32;34.80;;;30.67;;
11151;SDS011;5630;49.342;10.802;2023-10-19T06:37:59;32.90;;;29.00;;
11151;SDS011;5630;49.342;10.802;2023-10-19T06:40:25;32.87;;;29.30;;
11151;SDS011;5630;49.342;10.802;2023-10-19T06:42:54;34.80;;;31.03;;
11151;SDS011;5630;49.342;10.802;2023-10-19T06:45:23;35.00;;;30.33;;
11151;SDS011;5630;49.342;10.802;2023-10-19T06:47:50;34.13;;;30.40;;
11151;SDS011;5630;49.342;10.802;2023-10-19T06:50:17;23.97;;;18.10;;
11151;SDS011;5630;49.342;10.802;2023-10-19T06:52:44;27.70;;;21.27;;
11151;SDS011;5630;49.342;10.802;2023-10-19T06:55:14;25.30;;;21.17;;
11151;SDS011;5630;49.342;10.802;2023-10-19T06:57:48;26.27;;;21.80;;
11151;SDS011;5630;49.342;10.802;2023-10-19T07:00:16;25.03;;;20.60;;
11151;SDS011;5630;49.342;10.802;2023-10-19T07:02:46;22.00;;;19.50;;
11151;SDS011;5630;49.342;10.802;2023-10-19T07:05:16;26.67;;;22.33;;
11151;SDS011;5630;49.342;10.802;2023-10-19T07:07:55;26.57;;;23.87;;
11151;SDS011;5630;49.342;10.802;2023-10-19T07:10:21;24.20;;;21.60;;
11151;SDS011;5630;49.342;10.802;2023-10-19T07:12:48;26.93;;;24.00;;
11151;SDS011;5630;49.342;10.802;2023-10-19T07:15:18;27.23;;;24.37;;
11151;SDS011;5630;49.342;10.802;2023-10-19T07:17:45;25.20;;;22.60;;
11151;SDS011;5630;49.342;10.802;2023-10-19T07:20:12;28.00;;;24.40;;
11151;SDS011;5630;49.342;10.802;2023-10-19T07:22:52;28.20;;;25.20;;
11151;SDS011;5630;49.342;10.802;2023-10-19T07:25:18;26.70;;;24.03;;
11151;SDS011;5630;49.342;10.802;2023-10-19T07:27:46;27.90;;;25.00;;
11151;SDS011;5630;49.342;10.802;2023-10-19T07:30:13;29.30;;;26.20;;
11151;SDS011;5630;49.342;10.802;2023-10-19T07:32:40;29.07;;;24.87;;
11151;SDS011;5630;49.342;10.802;2023-10-19T07:35:06;29.57;;;26.50;;
11151;SDS011;5630;49.342;10.802;2023-10-19T07:37:32;28.40;;;25.43;;
11151;SDS011;5630;49.342;10.802;2023-10-19T07:39:58;31.27;;;26.53;;
11151;SDS011;5630;49.342;10.802;2023-10-19T07:42:24;30.47;;;26.30;;
11151;SDS011;5630;49.342;10.802;2023-10-19T07:44:50;30.30;;;27.03;;
11151;SDS011;5630;49.342;10.802;2023-10-19T07:47:16;33.00;;;27.13;;
11151;SDS011;5630;49.342;10.802;2023-10-19T07:49:42;31.20;;;27.90;;
11151;SDS011;5630;49.342;10.802;2023-10-19T07:52:08;34.00;;;29.20;;
11151;SDS011;5630;49.342;10.802;2023-10-19T07:54:36;29.17;;;26.00;;
11151;SDS011;5630;49.342;10.802;2023-10-19T07:57:02;29.07;;;25.80;;
11151;SDS011;5630;49.342;10.802;2023-10-19T07:59:31;33.87;;;26.33;;
11151;SDS011;5630;49.342;10.802;2023-10-19T08:02:03;29.63;;;26.43;;
11151;SDS011;5630;49.342;10.802;2023-10-19T08:04:29;29.03;;;25.93;;
11151;SDS011;5630;49.342;10.802;2023-10-19T08:06:56;29.37;;;25.80;;
11151;SDS011;5630;49.342;10.802;2023-10-19T08:09:22;29.17;;;26.17;;
11151;SDS011;5630;49.342;10.802;2023-10-19T08:11:48;31.23;;;25.70;;
11151;SDS011;5630;49.342;10.802;2023-10-19T08:14:15;28.87;;;25.70;;
11151;SDS011;5630;49.342;10.802;2023-10-19T08:16:40;28.87;;;25.70;;
11151;SDS011;5630;49.342;10.802;2023-10-19T08:19:08;30.47;;;25.60;;
11151;SDS011;5630;49.342;10.802;2023-10-19T08:21:34;28.63;;;25.43;;
11151;SDS011;5630;49.342;10.802;2023-10-19T08:24:00;30.53;;;27.33;;
11151;SDS011;5630;49.342;10.802;2023-10-19T08:26:29;29.90;;;24.97;;
11151;SDS011;5630;49.342;10.802;2023-10-19T08:28:55;25.60;;;23.00;;
11151;SDS011;5630;49.342;10.802;2023-10-19T08:31:23;28.20;;;24.83;;
11151;SDS011;5630;49.342;10.802;2023-10-19T08:33:49;28.67;;;25.57;;
11151;SDS011;5630;49.342;10.802;2023-10-19T08:36:17;25.97;;;23.37;;
11151;SDS011;5630;49.342;10.802;2023-10-19T08:38:44;24.03;;;20.63;;
11151;SDS011;5630;49.342;10.802;2023-10-19T08:41:11;28.90;;;25.87;;
11151;SDS011;5630;49.342;10.802;2023-10-19T08:43:37;27.20;;;23.90;;
11151;SDS011;5630;49.342;10.802;2023-10-19T08:46:04;28.63;;;25.03;;
11151;SDS011;5630;49.342;10.802;2023-10-19T08:48:33;26.33;;;23.63;;
11151;SDS011;5630;49.342;10.802;2023-10-19T08:51:01;30.07;;;23.77;;
11151;SDS011;5630;49.342;10.802;2023-10-19T08:53:33;29.47;;;24.70;;
11151;SDS011;5630;49.342;10.802;2023-10-19T08:56:04;27.83;;;24.13;;
11151;SDS011;5630;49.342;10.802;2023-10-19T08:58:31;29.00;;;25.73;;
11151;SDS011;5630;49.342;10.802;2023-10-19T09:00:57;29.57;;;24.93;;
11151;SDS011;5630;49.342;10.802;2023-10-19T09:03:31;27.17;;;24.37;;
11151;SDS011;5630;49.342;10.802;2023-10-19T09:05:57;30.57;;;27.10;;
11151;SDS011;5630;49.342;10.802;2023-10-19T09:08:26;17.30;;;15.53;;
11151;SDS011;5630;49.342;10.802;2023-10-19T09:11:05;17.47;;;13.97;;
11151;SDS011;5630;49.342;10.802;2023-10-19T09:13:50;15.60;;;14.03;;
11151;SDS011;5630;49.342;10.802;2023-10-19T09:16:17;23.77;;;21.37;;
11151;SDS011;5630;49.342;10.802;2023-10-19T09:18:44;25.93;;;23.07;;
11151;SDS011;5630;49.342;10.802;2023-10-19T09:21:19;24.17;;;21.67;;
11151;SDS011;5630;49.342;10.802;2023-10-19T09:23:49;24.83;;;22.40;;
11151;SDS011;5630;49.342;10.802;2023-10-19T09:26:15;26.93;;;23.67;;
11151;SDS011;5630;49.342;10.802;2023-10-19T09:28:41;24.83;;;22.37;;
11151;SDS011;5630;49.342;10.802;2023-10-19T09:31:07;27.07;;;24.13;;
11151;SDS011;5630;49.342;10.802;2023-10-19T09:33:34;24.80;;;22.00;;
11151;SDS011;5630;49.342;10.802;2023-10-19T09:36:03;27.13;;;24.23;;
11151;SDS011;5630;49.342;10.802;2023-10-19T09:38:30;25.97;;;23.17;;
11151;SDS011;5630;49.342;10.802;2023-10-19T09:40:56;27.10;;;23.93;;
11151;SDS011;5630;49.342;10.802;2023-10-19T09:43:34;25.43;;;22.83;;
11151;SDS011;5630;49.342;10.802;2023-10-19T09:46:07;30.03;;;25.13;;
11151;SDS011;5630;49.342;10.802;2023-10-19T09:48:36;27.03;;;24.13;;
11151;SDS011;5630;49.342;10.802;2023-10-19T09:51:06;27.57;;;24.77;;
11151;SDS011;5630;49.342;10.802;2023-10-19T09:53:34;29.63;;;26.30;;
11151;SDS011;5630;49.342;10.802;2023-10-19T09:56:01;27.60;;;24.60;;
11151;SDS011;5630;49.342;10.802;2023-10-19T09:58:36;27.37;;;24.67;;
11151;SDS011;5630;49.342;10.802;2023-10-19T10:01:11;26.47;;;23.07;;
11151;SDS011;5630;49.342;10.802;2023-10-19T10:06:10;27.23;;;24.33;;
11151;SDS011;5630;49.342;10.802;2023-10-19T10:08:37;28.00;;;23.90;;
11151;SDS011;5630;49.342;10.802;2023-10-19T10:11:17;26.53;;;23.23;;
11151;SDS011;5630;49.342;10.802;2023-10-19T10:13:43;25.43;;;22.83;;
11151;SDS011;5630;49.342;10.802;2023-10-19T10:16:17;27.57;;;24.20;;
11151;SDS011;5630;49.342;10.802;2023-10-19T10:18:54;25.40;;;21.73;;
11151;SDS011;5630;49.342;10.802;2023-10-19T10:21:24;26.00;;;23.33;;
11151;SDS011;5630;49.342;10.802;2023-10-19T10:26:17;25.73;;;23.07;;
11151;SDS011;5630;49.342;10.802;2023-10-19T10:28:48;23.50;;;21.00;;
11151;SDS011;5630;49.342;10.802;2023-10-19T10:31:31;24.87;;;22.13;;
11151;SDS011;5630;49.342;10.802;2023-10-19T10:34:01;23.97;;;21.03;;
11151;SDS011;5630;49.342;10.802;2023-10-19T10:36:27;22.60;;;20.23;;
11151;SDS011;5630;49.342;10.802;2023-10-19T10:39:29;25.03;;;21.40;;
11151;SDS011;5630;49.342;10.802;2023-10-19T10:41:56;22.23;;;19.87;;
11151;SDS011;5630;49.342;10.802;2023-10-19T10:44:35;23.63;;;19.97;;
11151;SDS011;5630;49.342;10.802;2023-10-19T10:47:03;21.50;;;19.00;;
11151;SDS011;5630;49.342;10.802;2023-10-19T10:49:34;21.17;;;18.97;;
11151;SDS011;5630;49.342;10.802;2023-10-19T10:52:11;22.83;;;19.17;;
11151;SDS011;5630;49.342;10.802;2023-10-19T10:54:36;25.53;;;18.83;;
11151;SDS011;5630;49.342;10.802;2023-10-19T10:57:02;20.43;;;18.30;;
11151;SDS011;5630;49.342;10.802;2023-10-19T10:59:29;19.80;;;17.50;;
11151;SDS011;5630;49.342;10.802;2023-10-19T11:01:54;18.77;;;16.70;;
11151;SDS011;5630;49.342;10.802;2023-10-19T11:04:20;18.87;;;16.97;;
11151;SDS011;5630;49.342;10.802;2023-10-19T11:06:53;20.07;;;17.77;;
11151;SDS011;5630;49.342;10.802;2023-10-19T11:09:21;19.63;;;16.87;;
11151;SDS011;5630;49.342;10.802;2023-10-19T11:11:47;18.23;;;16.43;;
11151;SDS011;5630;49.342;10.802;2023-10-19T11:14:14;18.40;;;16.33;;
11151;SDS011;5630;49.342;10.802;2023-10-19T11:16:40;18.23;;;16.33;;
11151;SDS011;5630;49.342;10.802;2023-10-19T11:19:08;18.27;;;16.40;;
11151;SDS011;5630;49.342;10.802;2023-10-19T11:21:34;16.80;;;15.10;;
11151;SDS011;5630;49.342;10.802;2023-10-19T11:24:01;17.87;;;15.40;;
11151;SDS011;5630;49.342;10.802;2023-10-19T11:26:27;17.90;;;15.10;;
11151;SDS011;5630;49.342;10.802;2023-10-19T11:29:02;17.27;;;14.20;;
11151;SDS011;5630;49.342;10.802;2023-10-19T11:31:34;16.20;;;13.67;;
11151;SDS011;5630;49.342;10.802;2023-10-19T11:34:03;15.87;;;13.90;;
11151;SDS011;5630;49.342;10.802;2023-10-19T11:36:29;14.87;;;13.47;;
11151;SDS011;5630;49.342;10.802;2023-10-19T11:38:55;16.40;;;13.53;;
11151;SDS011;5630;49.342;10.802;2023-10-19T11:41:21;16.10;;;14.27;;
11151;SDS011;5630;49.342;10.802;2023-10-19T11:43:48;21.33;;;14.03;;
11151;SDS011;5630;49.342;10.802;2023-10-19T11:46:14;14.97;;;13.47;;
11151;SDS011;5630;49.342;10.802;2023-10-19T11:48:43;17.60;;;14.27;;
11151;SDS011;5630;49.342;10.802;2023-10-19T11:51:09;16.03;;;14.27;;
11151;SDS011;5630;49.342;10.802;2023-10-19T11:53:39;13.90;;;12.57;;
11151;SDS011;5630;49.342;10.802;2023-10-19T11:56:06;14.60;;;12.83;;
11151;SDS011;5630;49.342;10.802;2023-10-19T11:58:33;15.33;;;13.23;;
11151;SDS011;5630;49.342;10.802;2023-10-19T12:01:00;14.70;;;13.10;;
11151;SDS011;5630;49.342;10.802;2023-10-19T12:03:26;16.27;;;13.90;;
11151;SDS011;5630;49.342;10.802;2023-10-19T12:05:53;14.27;;;12.27;;
11151;SDS011;5630;49.342;10.802;2023-10-19T12:08:19;15.33;;;12.37;;
11151;SDS011;5630;49.342;10.802;2023-10-19T12:10:44;15.33;;;13.20;;
11151;SDS011;5630;49.342;10.802;2023-10-19T12:13:10;14.73;;;12.57;;
11151;SDS011;5630;49.342;10.802;2023-10-19T12:15:35;14.17;;;12.53;;
11151;SDS011;5630;49.342;10.802;2023-10-19T12:18:01;14.60;;;13.17;;
11151;SDS011;5630;49.342;10.802;2023-10-19T12:20:28;15.40;;;13.73;;
11151;SDS011;5630;49.342;10.802;2023-10-19T12:22:56;16.33;;;14.20;;
11151;SDS011;5630;49.342;10.802;2023-10-19T12:25:22;14.33;;;12.87;;
11151;SDS011;5630;49.342;10.802;2023-10-19T12:27:57;14.90;;;12.97;;
11151;SDS011;5630;49.342;10.802;2023-10-19T12:30:23;14.50;;;13.00;;
11151;SDS011;5630;49.342;10.802;2023-10-19T12:32:51;17.87;;;12.57;;
11151;SDS011;5630;49.342;10.802;2023-10-19T12:35:17;15.97;;;14.40;;
11151;SDS011;5630;49.342;10.802;2023-10-19T12:37:48;14.97;;;13.67;;
11151;SDS011;5630;49.342;10.802;2023-10-19T12:40:17;16.37;;;14.67;;
11151;SDS011;5630;49.342;10.802;2023-10-19T12:42:55;19.07;;;14.13;;
11151;SDS011;5630;49.342;10.802;2023-10-19T12:45:21;16.97;;;13.50;;
11151;SDS011;5630;49.342;10.802;2023-10-19T12:47:47;14.53;;;12.90;;
11151;SDS011;5630;49.342;10.802;2023-10-19T12:50:13;13.83;;;12.40;;
11151;SDS011;5630;49.342;10.802;2023-10-19T12:52:39;15.83;;;12.60;;
11151;SDS011;5630;49.342;10.802;2023-10-19T12:55:05;14.40;;;12.87;;
11151;SDS011;5630;49.342;10.802;2023-10-19T12:57:32;15.87;;;13.17;;
11151;SDS011;5630;49.342;10.802;2023-10-19T12:59:58;13.43;;;12.07;;
11151;SDS011;5630;49.342;10.802;2023-10-19T13:02:31;13.97;;;8.90;;
11151;SDS011;5630;49.342;10.802;2023-10-19T13:04:57;9.53;;;6.53;;
11151;SDS011;5630;49.342;10.802;2023-10-19T13:07:24;8.87;;;7.73;;
11151;SDS011;5630;49.342;10.802;2023-10-19T13:09:51;8.83;;;7.10;;
11151;SDS011;5630;49.342;10.802;2023-10-19T13:12:16;7.37;;;6.67;;
11151;SDS011;5630;49.342;10.802;2023-10-19T13:14:48;11.60;;;7.77;;
11151;SDS011;5630;49.342;10.802;2023-10-19T13:17:14;9.47;;;7.93;;
11151;SDS011;5630;49.342;10.802;2023-10-19T13:19:39;13.67;;;8.93;;
11151;SDS011;5630;49.342;10.802;2023-10-19T13:22:05;14.63;;;10.77;;
11151;SDS011;5630;49.342;10.802;2023-10-19T13:24:32;12.00;;;10.80;;
11151;SDS011;5630;49.342;10.802;2023-10-19T13:27:05;14.17;;;12.67;;
11151;SDS011;5630;49.342;10.802;2023-10-19T13:29:31;12.97;;;11.67;;
11151;SDS011;5630;49.342;10.802;2023-10-19T13:32:02;13.93;;;12.43;;
11151;SDS011;5630;49.342;10.802;2023-10-19T13:34:28;14.93;;;13.30;;
11151;SDS011;5630;49.342;10.802;2023-10-19T13:36:54;14.27;;;12.63;;
11151;SDS011;5630;49.342;10.802;2023-10-19T13:39:21;15.93;;;13.40;;
11151;SDS011;5630;49.342;10.802;2023-10-19T13:41:50;14.40;;;12.77;;
11151;SDS011;5630;49.342;10.802;2023-10-19T13:44:17;13.80;;;12.40;;
11151;SDS011;5630;49.342;10.802;2023-10-19T13:46:45;14.60;;;13.13;;
11151;SDS011;5630;49.342;10.802;2023-10-19T13:49:11;15.73;;;13.47;;
11151;SDS011;5630;49.342;10.802;2023-10-19T13:51:37;14.80;;;13.20;;
11151;SDS011;5630;49.342;10.802;2023-10-19T13:54:04;14.63;;;13.10;;
11151;SDS011;5630;49.342;10.802;2023-10-19T13:56:30;15.90;;;14.30;;
11151;SDS011;5630;49.342;10.802;2023-10-19T13:58:55;16.33;;;14.43;;
11151;SDS011;5630;49.342;10.802;2023-10-19T14:01:21;15.03;;;13.47;;
11151;SDS011;5630;49.342;10.802;2023-10-19T14:03:53;15.87;;;14.20;;
11151;SDS011;5630;49.342;10.802;2023-10-19T14:06:20;15.80;;;13.80;;
11151;SDS011;5630;49.342;10.802;2023-10-19T14:08:45;14.90;;;13.30;;
11151;SDS011;5630;49.342;10.802;2023-10-19T14:11:12;15.20;;;13.73;;
11151;SDS011;5630;49.342;10.802;2023-10-19T14:13:39;14.27;;;12.77;;
11151;SDS011;5630;49.342;10.802;2023-10-19T14:16:07;17.23;;;13.47;;
11151;SDS011;5630;49.342;10.802;2023-10-19T14:18:33;14.50;;;12.70;;
11151;SDS011;5630;49.342;10.802;2023-10-19T14:21:00;14.83;;;13.30;;
11151;SDS011;5630;49.342;10.802;2023-10-19T14:23:25;16.27;;;13.83;;
11151;SDS011;5630;49.342;10.802;2023-10-19T14:25:52;14.50;;;13.20;;
11151;SDS011;5630;49.342;10.802;2023-10-19T14:28:18;10.70;;;7.60;;
11151;SDS011;5630;49.342;10.802;2023-10-19T14:30:43;16.37;;;14.00;;
11151;SDS011;5630;49.342;10.802;2023-10-19T14:33:10;15.93;;;13.00;;
11151;SDS011;5630;49.342;10.802;2023-10-19T14:35:36;16.93;;;12.87;;
11151;SDS011;5630;49.342;10.802;2023-10-19T14:38:04;15.10;;;13.60;;